sensor_id;sensor_type;location;lat;lon;timestamp;pressure;altitude;pressure_sealevel;temperature;humidity
48718;BME280;34521;33.042;-96.586;2023-05-11T00:01:44;99163.65;;;24.10;38.84
48718;BME280;34521;33.042;-96.586;2023-05-11T00:04:09;99160.55;;;23.79;38.27
48718;BME280;34521;33.042;-96.586;2023-05-11T00:06:34;99158.22;;;23.82;36.82
48718;BME280;34521;33.042;-96.586;2023-05-11T00:08:59;99163.10;;;23.15;38.26
48718;BME280;34521;33.042;-96.586;2023-05-11T00:11:24;99164.19;;;23.09;38.44
48718;BME280;34521;33.042;-96.586;2023-05-11T00:13:49;99163.14;;;23.27;38.06
48718;BME280;34521;33.042;-96.586;2023-05-11T00:16:14;99166.38;;;22.89;38.79
48718;BME280;34521;33.042;-96.586;2023-05-11T00:18:40;99165.23;;;23.21;38.46
48718;BME280;34521;33.042;-96.586;2023-05-11T00:21:05;99166.63;;;23.48;38.17
48718;BME280;34521;33.042;-96.586;2023-05-11T00:23:29;99161.95;;;23.89;37.95
48718;BME280;34521;33.042;-96.586;2023-05-11T00:25:55;99165.33;;;23.47;38.27
48718;BME280;34521;33.042;-96.586;2023-05-11T00:28:19;99163.83;;;23.92;38.08
48718;BME280;34521;33.042;-96.586;2023-05-11T00:30:44;99161.02;;;23.93;38.08
48718;BME280;34521;33.042;-96.586;2023-05-11T00:33:10;99164.10;;;23.28;40.83
48718;BME280;34521;33.042;-96.586;2023-05-11T00:35:35;99160.80;;;23.93;40.28
48718;BME280;34521;33.042;-96.586;2023-05-11T00:38:00;99157.65;;;23.89;39.99
48718;BME280;34521;33.042;-96.586;2023-05-11T00:40:25;99157.50;;;23.51;40.77
48718;BME280;34521;33.042;-96.586;2023-05-11T00:42:50;99154.46;;;23.09;40.51
48718;BME280;34521;33.042;-96.586;2023-05-11T00:45:15;99152.67;;;22.90;39.20
48718;BME280;34521;33.042;-96.586;2023-05-11T00:47:40;99153.90;;;23.36;37.16
48718;BME280;34521;33.042;-96.586;2023-05-11T00:50:06;99156.36;;;23.13;36.19
48718;BME280;34521;33.042;-96.586;2023-05-11T00:52:30;99157.69;;;23.16;36.32
48718;BME280;34521;33.042;-96.586;2023-05-11T00:54:55;99164.45;;;22.94;36.90
48718;BME280;34521;33.042;-96.586;2023-05-11T00:57:20;99164.95;;;23.22;36.57
48718;BME280;34521;33.042;-96.586;2023-05-11T00:59:45;99164.37;;;23.00;36.76
48718;BME280;34521;33.042;-96.586;2023-05-11T01:02:10;99165.68;;;22.92;37.15
48718;BME280;34521;33.042;-96.586;2023-05-11T01:04:35;99166.08;;;23.33;36.78
48718;BME280;34521;33.042;-96.586;2023-05-11T01:07:08;99171.01;;;23.31;36.93
48718;BME280;34521;33.042;-96.586;2023-05-11T01:09:36;99172.00;;;23.22;36.88
48718;BME280;34521;33.042;-96.586;2023-05-11T01:11:52;99172.90;;;22.46;37.98
48718;BME280;34521;33.042;-96.586;2023-05-11T01:14:20;99177.69;;;22.34;36.49
48718;BME280;34521;33.042;-96.586;2023-05-11T01:16:44;99180.00;;;23.48;35.09
48718;BME280;34521;33.042;-96.586;2023-05-11T01:19:11;99183.43;;;22.59;37.03
48718;BME280;34521;33.042;-96.586;2023-05-11T01:21:31;99185.34;;;22.84;36.48
48718;BME280;34521;33.042;-96.586;2023-05-11T01:26:33;99188.10;;;23.01;36.33
48718;BME280;34521;33.042;-96.586;2023-05-11T01:29:03;99189.05;;;23.26;36.14
48718;BME280;34521;33.042;-96.586;2023-05-11T01:31:11;99190.28;;;23.37;36.08
48718;BME280;34521;33.042;-96.586;2023-05-11T01:33:43;99189.16;;;23.24;36.37
48718;BME280;34521;33.042;-96.586;2023-05-11T01:36:04;99190.89;;;23.17;36.33
48718;BME280;34521;33.042;-96.586;2023-05-11T01:38:26;99189.62;;;22.48;37.03
48718;BME280;34521;33.042;-96.586;2023-05-11T01:40:55;99191.26;;;22.69;36.00
48718;BME280;34521;33.042;-96.586;2023-05-11T01:43:19;99191.72;;;23.21;35.75
48718;BME280;34521;33.042;-96.586;2023-05-11T01:45:44;99191.50;;;23.20;35.76
48718;BME280;34521;33.042;-96.586;2023-05-11T01:48:08;99188.96;;;22.43;36.32
48718;BME280;34521;33.042;-96.586;2023-05-11T01:50:32;99189.52;;;22.44;36.80
48718;BME280;34521;33.042;-96.586;2023-05-11T01:52:55;99190.70;;;22.87;36.11
48718;BME280;34521;33.042;-96.586;2023-05-11T01:55:22;99189.30;;;22.78;36.34
48718;BME280;34521;33.042;-96.586;2023-05-11T01:57:52;99189.87;;;23.03;36.07
48718;BME280;34521;33.042;-96.586;2023-05-11T02:00:12;99191.96;;;22.99;36.27
48718;BME280;34521;33.042;-96.586;2023-05-11T02:02:36;99190.77;;;23.29;35.97
48718;BME280;34521;33.042;-96.586;2023-05-11T02:05:01;99199.58;;;21.33;38.33
48718;BME280;34521;33.042;-96.586;2023-05-11T02:07:26;99195.15;;;22.95;35.42
48718;BME280;34521;33.042;-96.586;2023-05-11T02:09:51;99197.76;;;22.75;35.18
48718;BME280;34521;33.042;-96.586;2023-05-11T02:12:18;99205.88;;;22.11;36.74
48718;BME280;34521;33.042;-96.586;2023-05-11T02:14:46;99203.08;;;22.69;36.03
48718;BME280;34521;33.042;-96.586;2023-05-11T02:17:06;99206.14;;;22.67;35.89
48718;BME280;34521;33.042;-96.586;2023-05-11T02:19:32;99206.60;;;22.59;35.91
48718;BME280;34521;33.042;-96.586;2023-05-11T02:21:56;99206.70;;;22.77;35.77
48718;BME280;34521;33.042;-96.586;2023-05-11T02:24:22;99208.30;;;22.94;35.65
48718;BME280;34521;33.042;-96.586;2023-05-11T02:26:45;99211.93;;;23.10;35.56
48718;BME280;34521;33.042;-96.586;2023-05-11T02:29:11;99213.72;;;22.71;36.20
48718;BME280;34521;33.042;-96.586;2023-05-11T02:31:41;99217.19;;;23.16;35.70
48718;BME280;34521;33.042;-96.586;2023-05-11T02:34:06;99218.77;;;22.94;36.08
48718;BME280;34521;33.042;-96.586;2023-05-11T02:36:28;99221.68;;;22.46;39.01
48718;BME280;34521;33.042;-96.586;2023-05-11T02:38:57;99222.68;;;22.70;37.43
48718;BME280;34521;33.042;-96.586;2023-05-11T02:41:20;99225.62;;;22.83;37.33
48718;BME280;34521;33.042;-96.586;2023-05-11T02:43:45;99226.92;;;21.82;38.36
48718;BME280;34521;33.042;-96.586;2023-05-11T02:46:10;99222.79;;;22.99;35.46
48718;BME280;34521;33.042;-96.586;2023-05-11T02:48:37;99224.56;;;22.83;35.94
48718;BME280;34521;33.042;-96.586;2023-05-11T02:50:58;99222.40;;;22.60;36.30
48718;BME280;34521;33.042;-96.586;2023-05-11T02:53:24;99218.78;;;22.64;36.29
48718;BME280;34521;33.042;-96.586;2023-05-11T02:55:52;99220.40;;;22.90;36.18
48718;BME280;34521;33.042;-96.586;2023-05-11T02:58:11;99218.37;;;22.66;36.22
48718;BME280;34521;33.042;-96.586;2023-05-11T03:00:37;99217.23;;;23.18;35.95
48718;BME280;34521;33.042;-96.586;2023-05-11T03:03:01;99218.69;;;22.94;36.07
48718;BME280;34521;33.042;-96.586;2023-05-11T03:05:26;99219.94;;;22.61;36.25
48718;BME280;34521;33.042;-96.586;2023-05-11T03:07:52;99221.88;;;22.98;35.86
48718;BME280;34521;33.042;-96.586;2023-05-11T03:10:16;99222.38;;;23.00;35.86
48718;BME280;34521;33.042;-96.586;2023-05-11T03:12:42;99225.61;;;22.99;35.98
48718;BME280;34521;33.042;-96.586;2023-05-11T03:15:07;99227.51;;;23.12;35.85
48718;BME280;34521;33.042;-96.586;2023-05-11T03:17:32;99226.99;;;23.05;36.00
48718;BME280;34521;33.042;-96.586;2023-05-11T03:19:58;99228.16;;;22.90;36.30
48718;BME280;34521;33.042;-96.586;2023-05-11T03:22:22;99226.65;;;22.58;36.77
48718;BME280;34521;33.042;-96.586;2023-05-11T03:24:47;99228.87;;;21.57;37.71
48718;BME280;34521;33.042;-96.586;2023-05-11T03:27:12;99227.16;;;22.35;36.07
48718;BME280;34521;33.042;-96.586;2023-05-11T03:29:37;99218.84;;;22.76;35.41
48718;BME280;34521;33.042;-96.586;2023-05-11T03:32:01;99211.32;;;22.19;36.06
48718;BME280;34521;33.042;-96.586;2023-05-11T03:34:26;99216.68;;;21.50;38.31
48718;BME280;34521;33.042;-96.586;2023-05-11T03:36:52;99205.37;;;22.38;37.24
48718;BME280;34521;33.042;-96.586;2023-05-11T03:39:18;99207.98;;;23.19;36.32
48718;BME280;34521;33.042;-96.586;2023-05-11T03:41:42;99206.46;;;22.37;36.83
48718;BME280;34521;33.042;-96.586;2023-05-11T03:44:09;99204.28;;;23.05;36.25
48718;BME280;34521;33.042;-96.586;2023-05-11T03:46:36;99207.21;;;22.72;36.42
48718;BME280;34521;33.042;-96.586;2023-05-11T03:48:59;99210.69;;;22.67;36.51
48718;BME280;34521;33.042;-96.586;2023-05-11T03:51:22;99215.34;;;23.35;35.94
48718;BME280;34521;33.042;-96.586;2023-05-11T03:53:47;99217.73;;;22.95;36.15
48718;BME280;34521;33.042;-96.586;2023-05-11T03:56:12;99219.29;;;23.50;36.11
48718;BME280;34521;33.042;-96.586;2023-05-11T03:58:39;99220.28;;;22.96;36.17
48718;BME280;34521;33.042;-96.586;2023-05-11T04:01:02;99223.28;;;22.76;36.52
48718;BME280;34521;33.042;-96.586;2023-05-11T04:03:27;99216.33;;;22.97;36.29
48718;BME280;34521;33.042;-96.586;2023-05-11T04:05:52;99212.60;;;23.40;35.71
48718;BME280;34521;33.042;-96.586;2023-05-11T04:08:17;99212.31;;;23.01;36.55
48718;BME280;34521;33.042;-96.586;2023-05-11T04:10:42;99206.35;;;22.83;36.58
48718;BME280;34521;33.042;-96.586;2023-05-11T04:13:07;99201.52;;;22.92;36.43
48718;BME280;34521;33.042;-96.586;2023-05-11T04:15:32;99198.83;;;23.06;36.27
48718;BME280;34521;33.042;-96.586;2023-05-11T04:17:57;99195.97;;;22.84;36.60
48718;BME280;34521;33.042;-96.586;2023-05-11T04:20:22;99195.72;;;22.83;36.66
48718;BME280;34521;33.042;-96.586;2023-05-11T04:22:47;99195.43;;;22.07;37.16
48718;BME280;34521;33.042;-96.586;2023-05-11T04:25:12;99195.65;;;22.16;35.83
48718;BME280;34521;33.042;-96.586;2023-05-11T04:27:37;99184.41;;;22.38;35.99
48718;BME280;34521;33.042;-96.586;2023-05-11T04:30:02;99184.97;;;23.08;36.54
48718;BME280;34521;33.042;-96.586;2023-05-11T04:32:27;99181.29;;;22.87;37.71
48718;BME280;34521;33.042;-96.586;2023-05-11T04:34:52;99174.57;;;22.26;38.65
48718;BME280;34521;33.042;-96.586;2023-05-11T04:37:17;99170.34;;;22.73;38.03
48718;BME280;34521;33.042;-96.586;2023-05-11T04:39:42;99167.46;;;22.65;37.70
48718;BME280;34521;33.042;-96.586;2023-05-11T04:42:07;99164.67;;;22.75;37.42
48718;BME280;34521;33.042;-96.586;2023-05-11T04:44:37;99167.67;;;22.43;37.61
48718;BME280;34521;33.042;-96.586;2023-05-11T04:46:58;99170.94;;;22.76;37.43
48718;BME280;34521;33.042;-96.586;2023-05-11T04:49:22;99175.67;;;22.76;37.72
48718;BME280;34521;33.042;-96.586;2023-05-11T04:51:47;99179.77;;;22.67;37.18
48718;BME280;34521;33.042;-96.586;2023-05-11T04:54:13;99174.52;;;22.64;37.23
48718;BME280;34521;33.042;-96.586;2023-05-11T04:56:38;99170.47;;;22.83;36.88
48718;BME280;34521;33.042;-96.586;2023-05-11T04:59:02;99173.47;;;22.68;37.14
48718;BME280;34521;33.042;-96.586;2023-05-11T05:01:28;99171.38;;;22.74;37.00
48718;BME280;34521;33.042;-96.586;2023-05-11T05:03:53;99166.21;;;22.63;37.17
48718;BME280;34521;33.042;-96.586;2023-05-11T05:06:18;99158.19;;;22.49;37.40
48718;BME280;34521;33.042;-96.586;2023-05-11T05:08:43;99154.85;;;22.57;37.30
48718;BME280;34521;33.042;-96.586;2023-05-11T05:11:08;99156.57;;;22.85;36.87
48718;BME280;34521;33.042;-96.586;2023-05-11T05:13:33;99162.74;;;22.43;37.45
48718;BME280;34521;33.042;-96.586;2023-05-11T05:15:58;99165.29;;;23.00;37.00
48718;BME280;34521;33.042;-96.586;2023-05-11T05:18:23;99160.55;;;22.63;37.19
48718;BME280;34521;33.042;-96.586;2023-05-11T05:20:48;99157.87;;;22.95;37.08
48718;BME280;34521;33.042;-96.586;2023-05-11T05:23:13;99157.89;;;22.47;39.40
48718;BME280;34521;33.042;-96.586;2023-05-11T05:25:38;99160.84;;;22.52;40.30
48718;BME280;34521;33.042;-96.586;2023-05-11T05:28:03;99161.91;;;22.71;40.47
48718;BME280;34521;33.042;-96.586;2023-05-11T05:30:28;99171.09;;;21.89;42.19
48718;BME280;34521;33.042;-96.586;2023-05-11T05:32:53;99165.20;;;21.91;42.50
48718;BME280;34521;33.042;-96.586;2023-05-11T05:35:18;99153.72;;;22.38;40.96
48718;BME280;34521;33.042;-96.586;2023-05-11T05:37:43;99152.09;;;22.37;40.59
48718;BME280;34521;33.042;-96.586;2023-05-11T05:40:08;99150.78;;;22.62;39.96
48718;BME280;34521;33.042;-96.586;2023-05-11T05:42:33;99151.10;;;22.94;39.01
48718;BME280;34521;33.042;-96.586;2023-05-11T05:44:58;99155.27;;;23.11;39.45
48718;BME280;34521;33.042;-96.586;2023-05-11T05:47:23;99161.63;;;22.97;39.05
48718;BME280;34521;33.042;-96.586;2023-05-11T05:49:48;99165.98;;;22.75;39.04
48718;BME280;34521;33.042;-96.586;2023-05-11T05:52:13;99179.26;;;21.13;40.63
48718;BME280;34521;33.042;-96.586;2023-05-11T05:54:38;99181.18;;;21.75;39.03
48718;BME280;34521;33.042;-96.586;2023-05-11T05:57:03;99185.64;;;22.30;38.54
48718;BME280;34521;33.042;-96.586;2023-05-11T05:59:28;99187.45;;;21.95;38.31
48718;BME280;34521;33.042;-96.586;2023-05-11T06:01:53;99180.40;;;22.31;37.79
48718;BME280;34521;33.042;-96.586;2023-05-11T06:04:18;99174.35;;;22.43;37.78
48718;BME280;34521;33.042;-96.586;2023-05-11T06:06:43;99172.57;;;22.52;37.41
48718;BME280;34521;33.042;-96.586;2023-05-11T06:09:08;99170.78;;;22.87;37.30
48718;BME280;34521;33.042;-96.586;2023-05-11T06:11:33;99167.55;;;22.70;36.91
48718;BME280;34521;33.042;-96.586;2023-05-11T06:14:04;99166.13;;;22.76;37.24
48718;BME280;34521;33.042;-96.586;2023-05-11T06:16:23;99167.24;;;22.35;37.52
48718;BME280;34521;33.042;-96.586;2023-05-11T06:18:48;99162.97;;;22.74;37.00
48718;BME280;34521;33.042;-96.586;2023-05-11T06:21:13;99162.67;;;23.08;37.24
48718;BME280;34521;33.042;-96.586;2023-05-11T06:23:38;99158.45;;;22.75;37.08
48718;BME280;34521;33.042;-96.586;2023-05-11T06:26:03;99160.48;;;21.91;40.21
48718;BME280;34521;33.042;-96.586;2023-05-11T06:28:29;99165.95;;;20.89;42.99
48718;BME280;34521;33.042;-96.586;2023-05-11T06:30:56;99160.31;;;21.21;42.56
48718;BME280;34521;33.042;-96.586;2023-05-11T06:33:18;99147.82;;;22.50;40.91
48718;BME280;34521;33.042;-96.586;2023-05-11T06:35:44;99143.62;;;22.43;40.27
48718;BME280;34521;33.042;-96.586;2023-05-11T06:38:08;99146.17;;;22.64;39.97
48718;BME280;34521;33.042;-96.586;2023-05-11T06:40:33;99142.71;;;22.86;39.07
48718;BME280;34521;33.042;-96.586;2023-05-11T06:42:58;99137.99;;;22.67;39.27
48718;BME280;34521;33.042;-96.586;2023-05-11T06:45:24;99141.58;;;22.66;39.19
48718;BME280;34521;33.042;-96.586;2023-05-11T06:47:48;99146.63;;;22.77;38.62
48718;BME280;34521;33.042;-96.586;2023-05-11T06:50:14;99146.57;;;22.60;38.76
48718;BME280;34521;33.042;-96.586;2023-05-11T06:52:38;99145.54;;;22.73;38.13
48718;BME280;34521;33.042;-96.586;2023-05-11T06:55:05;99145.70;;;22.84;38.22
48718;BME280;34521;33.042;-96.586;2023-05-11T06:57:28;99142.27;;;22.70;38.38
48718;BME280;34521;33.042;-96.586;2023-05-11T06:59:53;99135.05;;;22.72;38.32
48718;BME280;34521;33.042;-96.586;2023-05-11T07:02:19;99132.00;;;22.79;38.54
48718;BME280;34521;33.042;-96.586;2023-05-11T07:04:44;99136.00;;;21.08;40.09
48718;BME280;34521;33.042;-96.586;2023-05-11T07:07:09;99126.85;;;22.33;37.33
48718;BME280;34521;33.042;-96.586;2023-05-11T07:09:33;99133.79;;;21.62;38.80
48718;BME280;34521;33.042;-96.586;2023-05-11T07:11:59;99126.69;;;22.73;37.59
48718;BME280;34521;33.042;-96.586;2023-05-11T07:14:24;99123.06;;;22.10;37.54
48718;BME280;34521;33.042;-96.586;2023-05-11T07:16:49;99122.46;;;22.59;37.27
48718;BME280;34521;33.042;-96.586;2023-05-11T07:19:14;99121.50;;;22.76;36.84
48718;BME280;34521;33.042;-96.586;2023-05-11T07:21:39;99122.51;;;22.89;36.70
48718;BME280;34521;33.042;-96.586;2023-05-11T07:24:04;99129.25;;;21.56;40.64
48718;BME280;34521;33.042;-96.586;2023-05-11T07:26:29;99125.34;;;20.58;43.42
48718;BME280;34521;33.042;-96.586;2023-05-11T07:28:54;99125.02;;;20.80;43.94
48718;BME280;34521;33.042;-96.586;2023-05-11T07:31:19;99122.23;;;21.72;42.42
48718;BME280;34521;33.042;-96.586;2023-05-11T07:33:44;99111.45;;;22.18;40.53
48718;BME280;34521;33.042;-96.586;2023-05-11T07:36:09;99110.93;;;22.17;40.66
48718;BME280;34521;33.042;-96.586;2023-05-11T07:38:34;99107.43;;;22.52;39.99
48718;BME280;34521;33.042;-96.586;2023-05-11T07:40:59;99110.74;;;22.98;39.11
48718;BME280;34521;33.042;-96.586;2023-05-11T07:43:24;99117.49;;;23.00;38.98
48718;BME280;34521;33.042;-96.586;2023-05-11T07:45:49;99118.50;;;22.40;39.05
48718;BME280;34521;33.042;-96.586;2023-05-11T07:48:14;99127.03;;;22.70;39.22
48718;BME280;34521;33.042;-96.586;2023-05-11T07:50:39;99131.75;;;23.04;38.61
48718;BME280;34521;33.042;-96.586;2023-05-11T07:53:04;99132.37;;;23.02;38.22
48718;BME280;34521;33.042;-96.586;2023-05-11T07:55:29;99129.40;;;22.92;38.28
48718;BME280;34521;33.042;-96.586;2023-05-11T07:57:54;99127.28;;;23.03;38.09
48718;BME280;34521;33.042;-96.586;2023-05-11T08:00:20;99120.77;;;22.92;38.57
48718;BME280;34521;33.042;-96.586;2023-05-11T08:02:45;99121.75;;;22.86;38.26
48718;BME280;34521;33.042;-96.586;2023-05-11T08:05:10;99120.94;;;22.83;38.32
48718;BME280;34521;33.042;-96.586;2023-05-11T08:07:34;99121.71;;;22.58;38.30
48718;BME280;34521;33.042;-96.586;2023-05-11T08:09:59;99123.06;;;23.10;38.24
48718;BME280;34521;33.042;-96.586;2023-05-11T08:12:29;99123.40;;;22.42;38.42
48718;BME280;34521;33.042;-96.586;2023-05-11T08:14:49;99124.33;;;22.38;38.47
48718;BME280;34521;33.042;-96.586;2023-05-11T08:17:14;99124.10;;;22.62;38.15
48718;BME280;34521;33.042;-96.586;2023-05-11T08:19:39;99121.91;;;21.92;40.68
48718;BME280;34521;33.042;-96.586;2023-05-11T08:22:05;99120.08;;;21.81;41.81
48718;BME280;34521;33.042;-96.586;2023-05-11T08:24:30;99123.09;;;20.66;44.55
48718;BME280;34521;33.042;-96.586;2023-05-11T08:26:54;99124.43;;;20.31;45.41
48718;BME280;34521;33.042;-96.586;2023-05-11T08:29:20;99120.13;;;19.93;46.34
48718;BME280;34521;33.042;-96.586;2023-05-11T08:31:44;99116.85;;;21.94;42.60
48718;BME280;34521;33.042;-96.586;2023-05-11T08:34:09;99107.57;;;21.94;41.71
48718;BME280;34521;33.042;-96.586;2023-05-11T08:36:35;99107.04;;;22.48;41.11
48718;BME280;34521;33.042;-96.586;2023-05-11T08:38:59;99102.38;;;22.68;40.36
48718;BME280;34521;33.042;-96.586;2023-05-11T08:41:24;99104.44;;;22.71;39.77
48718;BME280;34521;33.042;-96.586;2023-05-11T08:43:50;99105.94;;;22.91;39.43
48718;BME280;34521;33.042;-96.586;2023-05-11T08:46:20;99107.32;;;22.94;38.81
48718;BME280;34521;33.042;-96.586;2023-05-11T08:48:40;99108.12;;;22.72;39.02
48718;BME280;34521;33.042;-96.586;2023-05-11T08:51:06;99105.43;;;23.12;38.74
48718;BME280;34521;33.042;-96.586;2023-05-11T08:53:31;99102.65;;;23.19;38.53
48718;BME280;34521;33.042;-96.586;2023-05-11T08:55:57;99100.22;;;23.07;38.66
48718;BME280;34521;33.042;-96.586;2023-05-11T08:58:21;99095.16;;;22.77;38.68
48718;BME280;34521;33.042;-96.586;2023-05-11T09:00:46;99093.78;;;22.90;38.39
48718;BME280;34521;33.042;-96.586;2023-05-11T09:03:11;99094.49;;;22.78;38.63
48718;BME280;34521;33.042;-96.586;2023-05-11T09:05:36;99098.43;;;22.82;38.41
48718;BME280;34521;33.042;-96.586;2023-05-11T09:08:03;99095.44;;;22.86;38.39
48718;BME280;34521;33.042;-96.586;2023-05-11T09:10:25;99087.76;;;23.20;38.54
48718;BME280;34521;33.042;-96.586;2023-05-11T09:12:51;99084.50;;;23.04;38.42
48718;BME280;34521;33.042;-96.586;2023-05-11T09:15:16;99086.14;;;22.89;38.23
48718;BME280;34521;33.042;-96.586;2023-05-11T09:17:41;99088.60;;;21.82;40.58
48718;BME280;34521;33.042;-96.586;2023-05-11T09:20:08;99084.86;;;22.14;41.19
48718;BME280;34521;33.042;-96.586;2023-05-11T09:22:33;99085.15;;;20.45;44.51
48718;BME280;34521;33.042;-96.586;2023-05-11T09:24:59;99085.22;;;20.74;44.22
48718;BME280;34521;33.042;-96.586;2023-05-11T09:27:24;99086.52;;;20.59;44.76
48718;BME280;34521;33.042;-96.586;2023-05-11T09:29:52;99078.52;;;21.90;42.40
48718;BME280;34521;33.042;-96.586;2023-05-11T09:32:14;99082.12;;;22.15;41.17
48718;BME280;34521;33.042;-96.586;2023-05-11T09:34:39;99075.47;;;22.79;40.15
48718;BME280;34521;33.042;-96.586;2023-05-11T09:37:14;99074.87;;;23.24;39.31
48718;BME280;34521;33.042;-96.586;2023-05-11T09:39:30;99074.82;;;22.87;39.41
48718;BME280;34521;33.042;-96.586;2023-05-11T09:44:19;99070.12;;;20.47;41.53
48718;BME280;34521;33.042;-96.586;2023-05-11T09:46:45;99066.90;;;20.73;40.60
48718;BME280;34521;33.042;-96.586;2023-05-11T09:49:10;99072.50;;;20.87;41.20
48718;BME280;34521;33.042;-96.586;2023-05-11T09:51:36;99066.61;;;21.96;39.07
48718;BME280;34521;33.042;-96.586;2023-05-11T09:54:00;99066.32;;;21.91;38.72
48718;BME280;34521;33.042;-96.586;2023-05-11T09:58:51;99058.11;;;22.57;37.98
48718;BME280;34521;33.042;-96.586;2023-05-11T10:01:15;99055.73;;;22.46;37.82
48718;BME280;34521;33.042;-96.586;2023-05-11T10:03:45;99052.00;;;22.67;37.94
48718;BME280;34521;33.042;-96.586;2023-05-11T10:06:05;99053.12;;;22.67;37.39
48718;BME280;34521;33.042;-96.586;2023-05-11T10:08:31;99050.75;;;22.83;37.48
48718;BME280;34521;33.042;-96.586;2023-05-11T10:10:55;99043.54;;;23.27;37.20
48718;BME280;34521;33.042;-96.586;2023-05-11T10:13:21;99038.51;;;22.61;37.52
48718;BME280;34521;33.042;-96.586;2023-05-11T10:15:46;99039.45;;;22.76;37.31
48718;BME280;34521;33.042;-96.586;2023-05-11T10:18:10;99032.00;;;23.06;37.62
48718;BME280;34521;33.042;-96.586;2023-05-11T10:20:35;99036.09;;;20.60;42.33
48718;BME280;34521;33.042;-96.586;2023-05-11T10:23:00;99037.71;;;21.02;43.28
48718;BME280;34521;33.042;-96.586;2023-05-11T10:25:26;99041.85;;;20.37;44.85
48718;BME280;34521;33.042;-96.586;2023-05-11T10:27:51;99044.74;;;21.10;43.88
48718;BME280;34521;33.042;-96.586;2023-05-11T10:30:16;99045.38;;;22.17;41.28
48718;BME280;34521;33.042;-96.586;2023-05-11T10:32:41;99052.03;;;22.13;41.11
48718;BME280;34521;33.042;-96.586;2023-05-11T10:35:07;99052.52;;;22.31;40.25
48718;BME280;34521;33.042;-96.586;2023-05-11T10:37:30;99059.98;;;22.79;39.52
48718;BME280;34521;33.042;-96.586;2023-05-11T10:39:57;99063.92;;;23.14;39.20
48718;BME280;34521;33.042;-96.586;2023-05-11T10:42:33;99074.29;;;22.67;39.40
48718;BME280;34521;33.042;-96.586;2023-05-11T10:44:59;99080.89;;;23.06;39.10
48718;BME280;34521;33.042;-96.586;2023-05-11T10:47:31;99094.31;;;23.40;38.46
48718;BME280;34521;33.042;-96.586;2023-05-11T10:54:36;99109.64;;;22.78;38.36
48718;BME280;34521;33.042;-96.586;2023-05-11T10:57:02;99110.39;;;23.09;38.75
48718;BME280;34521;33.042;-96.586;2023-05-11T10:59:30;99111.38;;;22.74;38.92
48718;BME280;34521;33.042;-96.586;2023-05-11T11:01:41;99110.10;;;23.43;38.19
48718;BME280;34521;33.042;-96.586;2023-05-11T11:04:07;99110.37;;;22.84;38.74
48718;BME280;34521;33.042;-96.586;2023-05-11T11:06:37;99121.20;;;22.92;38.26
48718;BME280;34521;33.042;-96.586;2023-05-11T11:08:57;99130.50;;;22.87;38.25
48718;BME280;34521;33.042;-96.586;2023-05-11T11:11:29;99135.73;;;23.00;38.33
48718;BME280;34521;33.042;-96.586;2023-05-11T11:13:55;99139.09;;;22.96;38.31
48718;BME280;34521;33.042;-96.586;2023-05-11T11:16:11;99142.71;;;21.07;41.77
48718;BME280;34521;33.042;-96.586;2023-05-11T11:18:41;99145.62;;;20.54;43.76
48718;BME280;34521;33.042;-96.586;2023-05-11T11:21:02;99148.63;;;20.29;44.37
48718;BME280;34521;33.042;-96.586;2023-05-11T11:23:40;99153.30;;;20.63;43.99
48718;BME280;34521;33.042;-96.586;2023-05-11T11:25:52;99153.66;;;20.63;44.02
48718;BME280;34521;33.042;-96.586;2023-05-11T11:28:16;99149.59;;;22.26;41.16
48718;BME280;34521;33.042;-96.586;2023-05-11T11:30:42;99140.46;;;22.37;40.27
48718;BME280;34521;33.042;-96.586;2023-05-11T11:35:45;99138.39;;;22.61;39.33
48718;BME280;34521;33.042;-96.586;2023-05-11T11:38:00;99145.89;;;22.42;39.10
48718;BME280;34521;33.042;-96.586;2023-05-11T11:42:46;99149.53;;;22.74;38.91
48718;BME280;34521;33.042;-96.586;2023-05-11T11:45:26;99148.97;;;22.66;38.90
48718;BME280;34521;33.042;-96.586;2023-05-11T11:47:37;99152.44;;;22.74;38.44
48718;BME280;34521;33.042;-96.586;2023-05-11T11:50:09;99154.86;;;23.07;38.25
48718;BME280;34521;33.042;-96.586;2023-05-11T11:52:33;99155.65;;;22.62;38.52
48718;BME280;34521;33.042;-96.586;2023-05-11T11:54:52;99156.52;;;22.93;38.39
48718;BME280;34521;33.042;-96.586;2023-05-11T11:59:45;99151.60;;;22.93;38.01
48718;BME280;34521;33.042;-96.586;2023-05-11T12:02:08;99141.45;;;22.68;38.38
48718;BME280;34521;33.042;-96.586;2023-05-11T12:04:42;99141.07;;;20.63;40.70
48718;BME280;34521;33.042;-96.586;2023-05-11T12:06:58;99144.13;;;21.01;39.28
48718;BME280;34521;33.042;-96.586;2023-05-11T12:09:22;99148.85;;;21.68;39.47
48718;BME280;34521;33.042;-96.586;2023-05-11T12:11:47;99159.52;;;21.58;39.02
48718;BME280;34521;33.042;-96.586;2023-05-11T12:14:12;99163.15;;;22.37;38.02
48718;BME280;34521;33.042;-96.586;2023-05-11T12:16:37;99174.16;;;22.26;38.18
48718;BME280;34521;33.042;-96.586;2023-05-11T12:19:03;99179.74;;;20.80;41.45
48718;BME280;34521;33.042;-96.586;2023-05-11T12:21:29;99182.67;;;20.02;44.83
48718;BME280;34521;33.042;-96.586;2023-05-11T12:23:53;99186.48;;;20.23;45.40
48718;BME280;34521;33.042;-96.586;2023-05-11T12:26:20;99194.29;;;20.95;44.19
48718;BME280;34521;33.042;-96.586;2023-05-11T12:28:43;99192.93;;;21.87;41.86
48718;BME280;34521;33.042;-96.586;2023-05-11T12:31:08;99194.57;;;22.02;41.45
48718;BME280;34521;33.042;-96.586;2023-05-11T12:33:33;99191.67;;;22.32;40.90
48718;BME280;34521;33.042;-96.586;2023-05-11T12:35:58;99192.32;;;22.51;40.41
48718;BME280;34521;33.042;-96.586;2023-05-11T12:38:23;99188.94;;;22.94;39.68
48718;BME280;34521;33.042;-96.586;2023-05-11T12:40:48;99185.23;;;22.83;39.23
48718;BME280;34521;33.042;-96.586;2023-05-11T12:43:16;99182.38;;;22.45;39.42
48718;BME280;34521;33.042;-96.586;2023-05-11T12:45:38;99185.92;;;22.66;39.74
48718;BME280;34521;33.042;-96.586;2023-05-11T12:48:04;99196.93;;;22.74;39.16